Time;durP1;ratioP1;P1;durP2;ratioP2;P2;SDS_P1;SDS_P2;PMS_P1;PMS_P2;Temp;Humidity;BMP_temperature;BMP_pressure;BME280_temperature;BME280_humidity;BME280_pressure;Samples;Min_cycle;Max_cycle;Signal;HPM_P1;HPM_P2
2022/07/22 00:02:15;;;;;;;9.20;8.48;;;23.00;99.90;;;;;;5011835;28;20212;-71
2022/07/22 00:04:41;;;;;;;9.30;8.60;;;23.00;99.90;;;;;;5016751;28;20202;-71
2022/07/22 00:07:08;;;;;;;9.07;8.27;;;23.00;99.90;;;;;;5006532;28;20607;-72
2022/07/22 00:09:35;;;;;;;8.55;7.95;;;22.90;99.90;;;;;;5006209;28;20261;-72
2022/07/22 00:12:04;;;;;;;9.15;8.45;;;22.60;99.90;;;;;;5006585;28;20204;-72
2022/07/22 00:14:31;;;;;;;8.15;7.57;;;22.50;99.90;;;;;;5006057;28;20309;-72
2022/07/22 00:16:58;;;;;;;8.88;8.07;;;22.40;99.90;;;;;;5006353;28;20709;-72
2022/07/22 00:19:25;;;;;;;7.85;7.35;;;22.20;99.90;;;;;;5021523;27;20209;-72
2022/07/22 00:21:51;;;;;;;7.38;6.68;;;22.00;99.90;;;;;;5024413;28;20213;-71
2022/07/22 00:24:18;;;;;;;7.43;6.82;;;22.10;99.90;;;;;;5006552;28;20585;-68
2022/07/22 00:26:45;;;;;;;7.85;7.10;;;21.90;99.90;;;;;;5005801;28;20205;-69
2022/07/22 00:29:13;;;;;;;7.95;7.35;;;21.80;99.90;;;;;;5006115;28;20711;-69
2022/07/22 00:31:40;;;;;;;7.78;7.18;;;21.80;99.90;;;;;;5006193;28;20209;-69
2022/07/22 00:34:07;;;;;;;7.93;7.10;;;21.70;99.90;;;;;;5024515;28;20204;-69
2022/07/22 00:36:34;;;;;;;7.00;6.40;;;21.50;99.90;;;;;;5025770;28;20217;-69
2022/07/22 00:39:00;;;;;;;6.83;6.43;;;21.50;99.90;;;;;;5026288;28;20228;-69
2022/07/22 00:41:28;;;;;;;7.22;6.63;;;21.30;99.90;;;;;;5025860;28;20216;-69
2022/07/22 00:43:58;;;;;;;6.70;6.07;;;21.20;99.90;;;;;;5010905;28;20202;-69
2022/07/22 00:46:27;;;;;;;6.23;5.57;;;21.10;99.90;;;;;;5005968;28;20696;-70
2022/07/22 00:48:55;;;;;;;6.33;5.83;;;21.10;99.90;;;;;;5016872;28;20240;-69
2022/07/22 00:51:23;;;;;;;7.13;6.40;;;21.10;99.90;;;;;;5025904;28;20212;-69
2022/07/22 00:53:50;;;;;;;7.10;6.50;;;21.10;99.90;;;;;;5025011;28;20261;-70
2022/07/22 00:56:17;;;;;;;5.53;5.20;;;21.10;99.90;;;;;;5025676;28;20212;-72
2022/07/22 00:58:45;;;;;;;5.40;5.10;;;21.20;99.90;;;;;;5025290;28;20718;-71
2022/07/22 01:01:12;;;;;;;5.53;5.10;;;21.30;99.90;;;;;;5025651;28;20204;-71
2022/07/22 01:03:41;;;;;;;7.10;5.90;;;21.30;99.90;;;;;;5025041;28;20197;-71
2022/07/22 01:06:08;;;;;;;5.68;5.32;;;21.20;99.90;;;;;;5025520;28;20262;-71
2022/07/22 01:08:35;;;;;;;5.97;5.47;;;21.20;99.90;;;;;;5025111;28;20229;-70
2022/07/22 01:11:10;;;;;;;5.10;4.80;;;21.10;99.90;;;;;;5021333;28;20594;-70
2022/07/22 01:13:37;;;;;;;5.33;4.93;;;21.00;99.90;;;;;;5005977;28;20654;-70
2022/07/22 01:16:08;;;;;;;5.37;4.97;;;21.00;99.90;;;;;;5005744;28;20209;-70
2022/07/22 01:18:36;;;;;;;5.40;5.00;;;20.90;99.90;;;;;;5015847;28;20213;-71
2022/07/22 01:21:08;;;;;;;5.90;5.50;;;20.80;99.90;;;;;;5025785;28;20205;-70
2022/07/22 01:23:35;;;;;;;5.43;5.07;;;20.70;99.90;;;;;;5014331;28;20201;-70
2022/07/22 01:26:05;;;;;;;6.47;5.97;;;20.70;99.90;;;;;;5004859;28;20205;-70
2022/07/22 01:28:33;;;;;;;5.80;5.13;;;20.70;99.90;;;;;;5005003;28;20221;-69
2022/07/22 01:31:00;;;;;;;5.80;5.40;;;20.70;99.90;;;;;;5007487;28;20205;-70
2022/07/22 01:33:27;;;;;;;6.07;5.27;;;20.70;99.90;;;;;;5024872;28;20201;-69
2022/07/22 01:35:54;;;;;;;5.63;5.23;;;20.70;99.90;;;;;;5024911;28;20811;-70
2022/07/22 01:38:23;;;;;;;5.60;5.20;;;20.70;99.90;;;;;;5025039;28;20551;-70
2022/07/22 01:40:50;;;;;;;5.53;5.03;;;20.70;99.90;;;;;;5024773;28;20217;-69
2022/07/22 01:43:20;;;;;;;6.30;5.80;;;20.60;99.90;;;;;;5012848;28;20234;-69
2022/07/22 01:45:48;;;;;;;5.50;5.03;;;20.50;99.90;;;;;;5010923;28;20747;-69
2022/07/22 01:48:15;;;;;;;6.97;5.93;;;20.60;99.90;;;;;;5020995;28;20236;-69
2022/07/22 01:50:42;;;;;;;5.73;5.33;;;20.50;99.90;;;;;;5024409;28;20702;-69
2022/07/22 01:53:09;;;;;;;5.70;5.30;;;20.50;99.90;;;;;;5024842;28;20212;-69
2022/07/22 01:55:38;;;;;;;5.80;5.13;;;20.50;99.90;;;;;;5021904;28;20211;-69
2022/07/22 01:58:05;;;;;;;7.67;5.60;;;20.40;99.90;;;;;;5005053;28;20206;-69
2022/07/22 02:00:33;;;;;;;6.00;5.50;;;20.40;99.90;;;;;;5005109;28;20209;-69
2022/07/22 02:02:59;;;;;;;6.00;5.50;;;20.50;99.90;;;;;;5005044;28;20212;-69
2022/07/22 02:05:26;;;;;;;5.83;5.43;;;20.40;99.90;;;;;;5005199;28;20206;-71
2022/07/22 02:07:53;;;;;;;5.73;5.30;;;20.50;99.90;;;;;;5004869;28;20210;-71
2022/07/22 02:10:20;;;;;;;6.37;5.33;;;20.60;99.90;;;;;;5004664;28;20225;-69
2022/07/22 02:12:48;;;;;;;6.37;5.73;;;20.60;99.90;;;;;;5004927;28;20403;-69
2022/07/22 02:15:15;;;;;;;6.40;5.83;;;20.60;99.90;;;;;;5004802;28;20221;-69
2022/07/22 02:17:42;;;;;;;5.77;5.37;;;20.50;99.90;;;;;;5004797;28;20232;-69
2022/07/22 02:20:09;;;;;;;6.40;5.90;;;20.60;99.90;;;;;;5026343;28;20217;-69
2022/07/22 02:22:36;;;;;;;5.73;5.23;;;20.50;99.90;;;;;;5006615;28;20217;-70
2022/07/22 02:25:04;;;;;;;6.13;5.60;;;20.50;99.90;;;;;;5004858;28;20209;-70
2022/07/22 02:27:31;;;;;;;6.10;5.73;;;20.60;99.90;;;;;;5004777;28;20202;-69
2022/07/22 02:29:59;;;;;;;6.20;5.80;;;20.50;99.90;;;;;;5004781;28;20240;-69
2022/07/22 02:32:26;;;;;;;6.47;5.90;;;20.40;99.90;;;;;;5004498;28;20211;-69
2022/07/22 02:34:52;;;;;;;6.63;6.23;;;20.40;99.90;;;;;;5004061;28;20770;-69
2022/07/22 02:37:19;;;;;;;6.50;6.00;;;20.30;99.90;;;;;;5004960;28;20891;-69
2022/07/22 02:39:46;;;;;;;6.70;6.10;;;20.40;99.90;;;;;;5007896;28;20210;-69
2022/07/22 02:42:13;;;;;;;6.60;6.20;;;20.40;99.90;;;;;;5019446;28;20236;-69
2022/07/22 02:44:39;;;;;;;6.83;6.37;;;20.20;99.90;;;;;;5027654;28;20205;-69
2022/07/22 02:47:08;;;;;;;7.17;6.67;;;20.20;99.90;;;;;;5027792;28;20205;-69
2022/07/22 02:49:34;;;;;;;7.10;6.53;;;20.20;99.90;;;;;;5026874;28;20757;-69
2022/07/22 02:52:01;;;;;;;6.80;6.43;;;20.30;99.90;;;;;;5027246;28;20218;-69
2022/07/22 02:54:28;;;;;;;7.20;6.70;;;20.30;99.90;;;;;;5027435;28;20204;-69
2022/07/22 02:56:55;;;;;;;7.60;7.10;;;20.20;99.90;;;;;;5026676;28;20717;-69
2022/07/22 02:59:21;;;;;;;7.37;6.77;;;20.10;99.90;;;;;;5027369;28;20272;-69
2022/07/22 03:01:48;;;;;;;8.07;7.43;;;20.10;99.90;;;;;;5027250;28;20232;-69
2022/07/22 03:04:16;;;;;;;7.67;6.83;;;20.10;99.90;;;;;;5027262;28;20312;-68
2022/07/22 03:06:43;;;;;;;7.47;6.87;;;20.20;99.90;;;;;;5027094;28;20701;-69
2022/07/22 03:09:13;;;;;;;7.70;7.10;;;20.20;99.90;;;;;;5027288;28;20213;-69
2022/07/22 03:11:39;;;;;;;7.83;7.33;;;20.20;99.90;;;;;;5026989;28;20212;-69
2022/07/22 03:14:06;;;;;;;8.07;7.47;;;20.20;99.90;;;;;;5027232;28;20292;-69
2022/07/22 03:16:33;;;;;;;10.23;7.47;;;20.20;99.90;;;;;;5009146;28;20213;-69
2022/07/22 03:19:00;;;;;;;7.90;7.40;;;20.20;99.90;;;;;;5019393;27;20286;-69
2022/07/22 03:21:28;;;;;;;8.03;7.30;;;20.20;99.90;;;;;;5027144;28;20331;-70
2022/07/22 03:23:55;;;;;;;8.67;7.97;;;20.10;99.90;;;;;;5026993;28;20789;-70
2022/07/22 03:26:23;;;;;;;8.43;7.87;;;20.00;99.90;;;;;;5026911;28;20864;-71
2022/07/22 03:28:50;;;;;;;7.67;7.17;;;20.00;99.90;;;;;;5027027;28;20213;-71
2022/07/22 03:31:16;;;;;;;7.53;7.00;;;20.00;99.90;;;;;;5027107;28;20267;-71
2022/07/22 03:33:43;;;;;;;8.33;7.73;;;20.10;99.90;;;;;;5026552;28;20208;-71
2022/07/22 03:36:12;;;;;;;8.63;8.03;;;20.20;99.90;;;;;;5027133;28;20205;-71
2022/07/22 03:38:40;;;;;;;8.43;7.70;;;20.20;99.90;;;;;;5026656;28;20581;-71
2022/07/22 03:41:07;;;;;;;8.53;7.83;;;20.20;99.90;;;;;;5026721;28;20212;-69
2022/07/22 03:43:34;;;;;;;8.37;7.67;;;20.10;99.90;;;;;;5026396;28;20694;-70
2022/07/22 03:46:05;;;;;;;8.80;8.10;;;20.10;99.90;;;;;;5026895;28;20777;-70
2022/07/22 03:48:31;;;;;;;9.20;8.43;;;20.20;99.90;;;;;;5026132;28;20244;-69
2022/07/22 03:50:58;;;;;;;8.87;8.27;;;20.10;99.90;;;;;;5026383;28;20851;-70
2022/07/22 03:53:25;;;;;;;9.53;8.73;;;20.00;99.90;;;;;;5026531;28;20208;-70
2022/07/22 03:55:53;;;;;;;9.10;8.40;;;19.90;99.90;;;;;;5026433;28;20209;-71
2022/07/22 03:58:20;;;;;;;9.80;9.00;;;19.80;99.90;;;;;;5026604;28;20208;-70
2022/07/22 04:00:47;;;;;;;10.93;10.13;;;19.70;99.90;;;;;;5026522;28;20219;-70
2022/07/22 04:03:13;;;;;;;11.00;10.10;;;19.70;99.90;;;;;;5026307;28;20213;-70
2022/07/22 04:05:40;;;;;;;10.77;9.87;;;19.70;99.90;;;;;;5025806;28;20220;-70
2022/07/22 04:08:07;;;;;;;10.43;9.63;;;19.60;99.90;;;;;;5026501;28;20292;-69
2022/07/22 04:10:34;;;;;;;10.50;9.77;;;19.70;99.90;;;;;;5024519;28;20224;-70
2022/07/22 04:13:02;;;;;;;10.70;9.77;;;19.80;99.90;;;;;;5026426;28;20219;-70
2022/07/22 04:15:29;;;;;;;10.73;9.80;;;19.90;99.90;;;;;;5025985;28;20207;-70
2022/07/22 04:17:56;;;;;;;11.20;10.30;;;19.90;99.90;;;;;;5027735;27;20213;-69
2022/07/22 04:20:23;;;;;;;11.10;10.20;;;19.80;99.90;;;;;;5025965;28;20690;-70
2022/07/22 04:22:50;;;;;;;10.87;9.80;;;19.90;99.90;;;;;;5026135;28;20231;-70
2022/07/22 04:25:17;;;;;;;11.43;10.30;;;19.90;99.90;;;;;;5025936;28;20226;-70
2022/07/22 04:27:43;;;;;;;10.83;9.83;;;19.90;99.90;;;;;;5025768;28;20667;-70
2022/07/22 04:30:12;;;;;;;10.33;9.37;;;19.90;99.90;;;;;;5025966;28;20233;-70
2022/07/22 04:32:39;;;;;;;10.13;9.33;;;20.00;99.90;;;;;;5025705;28;20581;-70
2022/07/22 04:35:06;;;;;;;10.33;9.43;;;20.10;99.90;;;;;;5026030;28;20213;-70
2022/07/22 04:37:33;;;;;;;11.43;10.43;;;20.10;99.90;;;;;;5014203;28;20206;-70
2022/07/22 04:40:00;;;;;;;11.60;10.60;;;20.10;99.90;;;;;;5006251;28;20216;-70
2022/07/22 04:42:27;;;;;;;11.87;10.77;;;20.00;99.90;;;;;;5005596;28;20229;-71
2022/07/22 04:44:53;;;;;;;10.63;9.83;;;20.00;99.90;;;;;;5007316;28;20212;-71
2022/07/22 04:47:22;;;;;;;10.60;9.80;;;20.00;99.90;;;;;;5005882;28;20687;-70
2022/07/22 04:49:48;;;;;;;12.13;11.10;;;20.00;99.90;;;;;;5023963;27;20645;-70
2022/07/22 04:52:15;;;;;;;10.50;9.60;;;20.00;99.90;;;;;;5014801;28;20206;-67
2022/07/22 04:54:42;;;;;;;10.70;9.80;;;20.10;99.90;;;;;;5003957;28;20206;-68
2022/07/22 04:57:09;;;;;;;11.50;10.70;;;20.10;99.90;;;;;;5003564;28;21045;-68
2022/07/22 04:59:36;;;;;;;10.93;10.00;;;20.20;99.90;;;;;;5006947;28;20664;-69
2022/07/22 05:02:03;;;;;;;11.13;10.20;;;20.30;99.90;;;;;;5023397;28;20205;-68
2022/07/22 05:04:31;;;;;;;11.07;10.07;;;20.40;99.90;;;;;;5023400;28;20527;-68
2022/07/22 05:06:57;;;;;;;11.73;10.63;;;20.40;99.90;;;;;;5022439;28;20315;-69
2022/07/22 05:09:24;;;;;;;12.47;11.43;;;20.40;99.90;;;;;;5023557;28;20209;-68
2022/07/22 05:11:51;;;;;;;11.90;11.00;;;20.30;99.90;;;;;;5008184;28;20588;-69
2022/07/22 05:14:18;;;;;;;11.47;10.60;;;20.30;99.90;;;;;;5003362;28;21051;-68
2022/07/22 05:16:45;;;;;;;11.77;10.77;;;20.20;99.90;;;;;;5002773;28;20290;-68
2022/07/22 05:19:14;;;;;;;11.97;10.97;;;20.30;99.90;;;;;;5016498;27;20223;-68
2022/07/22 05:21:43;;;;;;;11.50;10.70;;;20.20;99.90;;;;;;5022856;28;20209;-68
2022/07/22 05:24:09;;;;;;;12.17;11.27;;;20.30;99.90;;;;;;5023300;28;20212;-68
2022/07/22 05:26:36;;;;;;;11.63;10.73;;;20.20;99.90;;;;;;5022628;28;20222;-68
2022/07/22 05:29:03;;;;;;;13.47;12.23;;;20.20;99.90;;;;;;5010397;28;20552;-67
2022/07/22 05:31:30;;;;;;;12.63;11.60;;;20.10;99.90;;;;;;5003934;28;20400;-67
2022/07/22 05:33:57;;;;;;;12.97;11.87;;;20.10;99.90;;;;;;5003647;28;20216;-68
2022/07/22 05:36:24;;;;;;;13.17;12.07;;;20.20;99.90;;;;;;5003432;28;20212;-68
2022/07/22 05:38:52;;;;;;;12.60;11.53;;;20.30;99.90;;;;;;5003272;28;20205;-69
2022/07/22 05:41:19;;;;;;;13.33;12.33;;;20.30;99.90;;;;;;5016045;28;20838;-69
2022/07/22 05:43:46;;;;;;;13.33;12.13;;;20.30;99.90;;;;;;5020599;28;20576;-70
2022/07/22 05:46:12;;;;;;;14.13;12.87;;;20.30;99.90;;;;;;5025281;28;20211;-69
2022/07/22 05:48:39;;;;;;;14.00;12.60;;;20.20;99.90;;;;;;5023642;28;20237;-69
2022/07/22 05:51:12;;;;;;;13.83;12.63;;;20.20;99.90;;;;;;5023227;28;20984;-69
2022/07/22 05:53:39;;;;;;;13.40;12.30;;;20.20;99.90;;;;;;5022956;28;20197;-69
2022/07/22 05:56:08;;;;;;;13.70;12.50;;;20.10;99.90;;;;;;5021741;28;20287;-69
2022/07/22 05:58:35;;;;;;;13.43;12.37;;;20.20;99.90;;;;;;5023543;28;20205;-69
2022/07/22 06:01:06;;;;;;;13.23;11.87;;;20.30;99.90;;;;;;5022667;28;20269;-69
2022/07/22 06:03:33;;;;;;;13.23;12.23;;;20.30;99.90;;;;;;5023229;28;20185;-69
2022/07/22 06:06:01;;;;;;;14.13;13.03;;;20.30;99.90;;;;;;5023618;28;20651;-70
2022/07/22 06:08:28;;;;;;;13.83;12.47;;;20.30;99.90;;;;;;5024169;28;20622;-69
2022/07/22 06:10:55;;;;;;;13.70;12.60;;;20.30;99.90;;;;;;5024105;28;20309;-69
2022/07/22 06:13:23;;;;;;;13.70;12.67;;;20.40;99.90;;;;;;5028167;28;20289;-69
2022/07/22 06:15:50;;;;;;;14.00;12.80;;;20.40;99.90;;;;;;5028099;28;20205;-69
2022/07/22 06:18:17;;;;;;;13.60;12.50;;;20.40;99.90;;;;;;5029286;28;20213;-69
2022/07/22 06:20:43;;;;;;;13.60;12.40;;;20.50;99.90;;;;;;5018814;28;20686;-70
2022/07/22 06:23:13;;;;;;;14.43;13.23;;;20.50;99.90;;;;;;5013459;28;20201;-69
2022/07/22 06:25:40;;;;;;;12.90;11.77;;;20.50;99.90;;;;;;5028050;28;20209;-69
2022/07/22 06:28:07;;;;;;;13.67;12.57;;;20.60;99.90;;;;;;5027923;28;20213;-69
2022/07/22 06:30:35;;;;;;;12.00;11.10;;;20.50;99.90;;;;;;5027903;28;20237;-69
2022/07/22 06:33:02;;;;;;;13.80;12.53;;;20.50;99.90;;;;;;5027578;28;20215;-69
2022/07/22 06:35:29;;;;;;;13.40;12.20;;;20.50;99.90;;;;;;5027417;28;20671;-69
2022/07/22 06:37:56;;;;;;;13.17;12.20;;;20.60;99.90;;;;;;5026486;28;20736;-69
2022/07/22 06:40:23;;;;;;;11.80;10.90;;;20.60;99.90;;;;;;5027248;28;21041;-69
2022/07/22 06:42:50;;;;;;;14.17;12.80;;;20.60;99.90;;;;;;5027475;28;20349;-69
2022/07/22 06:45:17;;;;;;;13.63;12.53;;;20.60;99.90;;;;;;5025997;28;20683;-69
2022/07/22 06:47:45;;;;;;;13.27;12.07;;;20.70;99.90;;;;;;5027188;28;20200;-69
2022/07/22 06:50:12;;;;;;;14.73;13.33;;;20.90;99.90;;;;;;5012176;28;20201;-69
2022/07/22 06:52:40;;;;;;;13.03;11.97;;;20.80;99.90;;;;;;5027581;28;20311;-69
2022/07/22 06:55:08;;;;;;;13.00;11.83;;;20.80;99.90;;;;;;5027585;28;20217;-69
2022/07/22 06:57:35;;;;;;;13.03;12.03;;;20.90;99.90;;;;;;5025883;28;20201;-69
2022/07/22 07:00:03;;;;;;;14.00;12.87;;;20.90;99.90;;;;;;5027707;28;20212;-69
2022/07/22 07:02:30;;;;;;;13.57;12.37;;;20.90;99.90;;;;;;5027486;28;20242;-69
2022/07/22 07:04:58;;;;;;;13.77;12.67;;;20.90;99.90;;;;;;5027208;28;20220;-69
2022/07/22 07:07:25;;;;;;;13.67;12.33;;;20.80;99.90;;;;;;5027161;28;20573;-70
2022/07/22 07:09:52;;;;;;;12.30;11.40;;;20.80;99.90;;;;;;5027071;28;20215;-69
2022/07/22 07:12:20;;;;;;;12.60;11.70;;;20.90;99.90;;;;;;5012197;28;20237;-69
2022/07/22 07:14:47;;;;;;;13.43;12.43;;;21.10;99.90;;;;;;5007634;28;20214;-69
2022/07/22 07:17:15;;;;;;;11.77;10.87;;;21.00;99.90;;;;;;5008842;28;20232;-69
2022/07/22 07:19:41;;;;;;;11.73;10.73;;;21.00;99.90;;;;;;5025420;27;20215;-70
2022/07/22 07:22:10;;;;;;;11.50;10.60;;;21.10;99.90;;;;;;5026916;28;20209;-70
2022/07/22 07:24:37;;;;;;;9.97;9.10;;;21.10;99.90;;;;;;5026123;28;20674;-69
2022/07/22 07:27:03;;;;;;;10.30;9.37;;;21.10;99.90;;;;;;5027161;28;20495;-69
2022/07/22 07:29:30;;;;;;;9.33;8.63;;;21.20;99.90;;;;;;5026854;28;20207;-70
2022/07/22 07:31:57;;;;;;;8.23;7.53;;;21.30;99.90;;;;;;5016846;28;20277;-69
2022/07/22 07:34:24;;;;;;;7.40;7.00;;;21.20;99.90;;;;;;5007582;28;20209;-69
2022/07/22 07:36:51;;;;;;;8.77;7.77;;;21.30;99.90;;;;;;5007397;28;20229;-69
2022/07/22 07:39:19;;;;;;;8.43;7.73;;;21.40;99.90;;;;;;5006800;28;20304;-69
2022/07/22 07:41:46;;;;;;;8.27;7.67;;;21.40;99.90;;;;;;5006319;28;20699;-69
2022/07/22 07:44:13;;;;;;;8.50;7.70;;;21.50;99.90;;;;;;5022137;28;20301;-69
2022/07/22 07:46:39;;;;;;;7.30;6.70;;;21.50;99.90;;;;;;5026846;28;20205;-69
2022/07/22 07:49:06;;;;;;;8.30;7.77;;;21.60;99.90;;;;;;5028080;28;20233;-69
2022/07/22 07:51:33;;;;;;;8.57;7.73;;;21.60;99.90;;;;;;5026694;28;20615;-69
2022/07/22 07:54:00;;;;;;;7.07;6.65;;;21.70;99.90;;;;;;5026610;28;20204;-69
2022/07/22 07:56:28;;;;;;;7.50;7.00;;;21.90;99.90;;;;;;5026543;28;20215;-69
2022/07/22 07:58:54;;;;;;;7.10;6.60;;;21.90;99.90;;;;;;5026335;28;20200;-69
2022/07/22 08:01:22;;;;;;;6.90;6.50;;;21.90;99.90;;;;;;5026774;28;20299;-70
2022/07/22 08:03:49;;;;;;;6.05;5.53;;;21.80;99.90;;;;;;5026023;28;20655;-69
2022/07/22 08:06:16;;;;;;;6.88;6.28;;;22.00;99.90;;;;;;5026141;28;20213;-69
2022/07/22 08:08:43;;;;;;;6.88;6.32;;;22.10;99.90;;;;;;5024602;28;20235;-69
2022/07/22 08:11:10;;;;;;;7.32;6.65;;;22.20;99.90;;;;;;5025917;28;20587;-69
2022/07/22 08:13:38;;;;;;;6.18;5.85;;;22.20;99.90;;;;;;5026450;28;20404;-69
2022/07/22 08:16:08;;;;;;;6.53;6.13;;;22.10;99.90;;;;;;5012422;28;20209;-69
2022/07/22 08:18:34;;;;;;;6.37;5.97;;;22.00;99.90;;;;;;5015564;27;20208;-69
2022/07/22 08:21:01;;;;;;;6.83;6.23;;;21.90;99.90;;;;;;5026241;28;20232;-69
2022/07/22 08:23:32;;;;;;;7.20;6.60;;;21.80;99.90;;;;;;5025991;28;20631;-69
2022/07/22 08:25:59;;;;;;;6.50;6.10;;;21.80;99.90;;;;;;5025922;28;20213;-69
2022/07/22 08:28:26;;;;;;;6.03;5.53;;;21.70;99.90;;;;;;5015307;28;20213;-69
2022/07/22 08:30:54;;;;;;;6.73;6.23;;;21.70;99.90;;;;;;5006075;28;20220;-69
2022/07/22 08:33:21;;;;;;;6.83;6.43;;;21.60;99.90;;;;;;5006004;28;20210;-69
2022/07/22 08:35:48;;;;;;;6.43;6.03;;;21.70;99.90;;;;;;5006232;28;20213;-69
2022/07/22 08:38:15;;;;;;;8.60;7.43;;;21.60;99.90;;;;;;5006247;28;20209;-69
2022/07/22 08:40:42;;;;;;;7.83;6.60;;;21.70;99.90;;;;;;5005998;28;20213;-69
2022/07/22 08:43:08;;;;;;;5.90;5.50;;;21.70;99.90;;;;;;5006079;28;20217;-69
2022/07/22 08:45:35;;;;;;;5.60;5.30;;;21.80;99.90;;;;;;5005689;28;20237;-69
2022/07/22 08:48:05;;;;;;;6.63;6.15;;;21.80;99.90;;;;;;5010082;28;20216;-69
2022/07/22 08:50:32;;;;;;;4.78;4.57;;;22.00;99.90;;;;;;5025497;28;20763;-69
2022/07/22 08:52:59;;;;;;;4.38;4.18;;;22.00;99.90;;;;;;5025313;28;20714;-70
2022/07/22 08:55:26;;;;;;;4.60;4.30;;;22.00;99.90;;;;;;5025115;28;20674;-69
2022/07/22 08:57:53;;;;;;;4.63;4.37;;;22.00;99.90;;;;;;5025480;28;20215;-69
2022/07/22 09:00:22;;;;;;;4.80;4.50;;;21.90;99.90;;;;;;5016186;28;20206;-69
2022/07/22 09:02:48;;;;;;;4.90;4.63;;;21.90;99.90;;;;;;5005717;28;20227;-69
2022/07/22 09:05:19;;;;;;;4.50;4.10;;;21.90;99.90;;;;;;5012917;28;20572;-69
2022/07/22 09:07:46;;;;;;;5.53;4.70;;;21.80;99.90;;;;;;5025409;28;20193;-69
2022/07/22 09:10:15;;;;;;;4.60;4.30;;;21.60;99.90;;;;;;5025243;28;20312;-69
2022/07/22 09:12:55;;;;;;;4.43;4.23;;;21.60;99.90;;;;;;5025479;28;20236;-69
2022/07/22 09:15:30;;;;;;;5.60;4.00;;;21.80;99.90;;;;;;5023782;28;20226;-69
2022/07/22 09:17:58;;;;;;;4.10;3.90;;;21.70;99.90;;;;;;5027177;27;20232;-69
2022/07/22 09:20:27;;;;;;;3.23;3.10;;;21.70;99.90;;;;;;5025097;28;20242;-69
2022/07/22 09:22:54;;;;;;;3.25;3.05;;;21.70;99.90;;;;;;5024958;28;20214;-69
2022/07/22 09:25:25;;;;;;;2.90;2.70;;;21.80;99.90;;;;;;5024904;28;20663;-69
2022/07/22 09:27:53;;;;;;;3.10;2.80;;;22.00;99.90;;;;;;5025573;28;20280;-69
2022/07/22 09:30:23;;;;;;;2.80;2.70;;;22.10;99.90;;;;;;5025452;28;20216;-70
2022/07/22 09:32:51;;;;;;;4.43;2.90;;;22.20;99.90;;;;;;5023465;28;20228;-69
2022/07/22 09:35:19;;;;;;;3.10;2.83;;;22.30;99.90;;;;;;5025293;28;20219;-69
2022/07/22 09:37:55;;;;;;;3.70;3.40;;;22.30;99.90;;;;;;5024822;28;20667;-69
2022/07/22 09:40:24;;;;;;;3.00;2.80;;;22.30;99.90;;;;;;5015454;28;20198;-70
2022/07/22 09:42:56;;;;;;;2.83;2.72;;;22.30;99.90;;;;;;5004844;28;20270;-69
2022/07/22 09:45:25;;;;;;;3.08;2.78;;;22.30;99.90;;;;;;5005334;28;20558;-69
2022/07/22 09:47:52;;;;;;;2.70;2.60;;;22.40;99.90;;;;;;5010818;28;20209;-69
2022/07/22 09:50:23;;;;;;;2.90;2.70;;;22.50;99.90;;;;;;5128677;27;20190;-69
2022/07/22 09:52:51;;;;;;;3.50;3.20;;;22.60;99.90;;;;;;5128603;27;20224;-69
2022/07/22 09:55:21;;;;;;;3.85;3.60;;;22.40;99.90;;;;;;5038066;27;20209;-69
2022/07/22 09:57:48;;;;;;;3.50;3.15;;;22.30;99.90;;;;;;5024751;28;20216;-69
2022/07/22 10:00:19;;;;;;;3.87;3.67;;;22.10;99.90;;;;;;5017976;28;20240;-69
2022/07/22 10:02:48;;;;;;;3.80;3.60;;;22.00;99.90;;;;;;5005007;28;20198;-69
2022/07/22 10:05:17;;;;;;;3.77;3.57;;;22.00;99.90;;;;;;5005139;28;20210;-69
2022/07/22 10:07:45;;;;;;;3.38;3.28;;;22.20;99.90;;;;;;5004525;28;20557;-69
2022/07/22 10:10:13;;;;;;;3.70;3.50;;;22.20;99.90;;;;;;5004702;28;20213;-69
2022/07/22 10:12:42;;;;;;;3.80;3.60;;;22.20;99.90;;;;;;5004719;28;20330;-69
2022/07/22 10:15:13;;;;;;;3.70;3.50;;;22.20;99.90;;;;;;5004908;28;20206;-69
2022/07/22 10:17:43;;;;;;;3.37;3.20;;;22.40;99.90;;;;;;5004805;28;20276;-69
2022/07/22 10:20:11;;;;;;;3.40;3.20;;;22.50;99.90;;;;;;5024218;28;20568;-69
2022/07/22 10:22:54;;;;;;;3.25;3.03;;;22.60;99.90;;;;;;5024400;28;20253;-69
2022/07/22 10:25:23;;;;;;;3.10;2.95;;;22.90;99.90;;;;;;5024240;28;20193;-69
2022/07/22 10:27:54;;;;;;;2.80;2.70;;;22.90;99.90;;;;;;5024166;28;20209;-69
2022/07/22 10:30:23;;;;;;;3.38;2.80;;;23.00;99.90;;;;;;5024318;28;20354;-69
2022/07/22 10:33:07;;;;;;;3.20;3.10;;;23.00;99.90;;;;;;5024284;28;20268;-70
2022/07/22 10:35:36;;;;;;;3.17;2.97;;;23.10;99.90;;;;;;5024331;28;20193;-67
2022/07/22 10:38:06;;;;;;;3.50;3.35;;;23.30;99.90;;;;;;5004521;28;20213;-67
2022/07/22 10:40:47;;;;;;;3.95;3.75;;;23.60;99.90;;;;;;5004291;28;20213;-67
2022/07/22 10:43:17;;;;;;;4.00;3.70;;;23.60;99.90;;;;;;5015569;28;20209;-67
2022/07/22 10:45:48;;;;;;;4.68;4.40;;;23.40;99.90;;;;;;5023898;28;20586;-67
2022/07/22 10:48:18;;;;;;;4.40;4.20;;;23.40;99.90;;;;;;5023968;28;20328;-68
2022/07/22 10:50:51;;;;;;;4.03;3.72;;;23.60;99.90;;;;;;5023756;28;20205;-67
2022/07/22 10:53:21;;;;;;;4.18;3.97;;;23.70;99.90;;;;;;5024352;28;20225;-67
2022/07/22 10:56:05;;;;;;;5.38;4.32;;;23.70;99.90;;;;;;5023494;28;20202;-67
2022/07/22 10:58:51;;;;;;;4.47;3.80;;;23.70;99.90;;;;;;5024753;28;20246;-67
2022/07/22 11:01:19;;;;;;;5.07;4.63;;;23.70;99.90;;;;;;5019882;28;20225;-67
2022/07/22 11:03:48;;;;;;;4.35;4.13;;;23.80;99.90;;;;;;5018862;28;20205;-68
2022/07/22 11:06:20;;;;;;;4.35;3.92;;;24.00;99.90;;;;;;5027315;28;20205;-67
2022/07/22 11:08:49;;;;;;;3.70;3.50;;;24.10;99.90;;;;;;5027497;28;20198;-67
2022/07/22 11:11:16;;;;;;;3.30;3.20;;;24.20;99.90;;;;;;5026540;28;20208;-67
2022/07/22 11:13:44;;;;;;;3.80;3.50;;;24.40;99.90;;;;;;5027254;28;20225;-67
2022/07/22 11:16:22;;;;;;;3.55;3.35;;;24.40;99.90;;;;;;5027236;28;20212;-67
2022/07/22 11:18:52;;;;;;;3.75;3.55;;;24.30;99.90;;;;;;5028815;27;20212;-67
2022/07/22 11:21:21;;;;;;;3.80;3.60;;;24.40;99.90;;;;;;5015004;28;20198;-67
2022/07/22 11:23:49;;;;;;;3.10;2.90;;;24.20;99.90;;;;;;5007365;28;20221;-67
2022/07/22 11:26:18;;;;;;;2.92;2.83;;;24.30;99.90;;;;;;5007222;28;20212;-67
2022/07/22 11:28:46;;;;;;;3.55;3.28;;;24.30;99.90;;;;;;5006901;28;20212;-67
2022/07/22 11:31:16;;;;;;;3.13;2.88;;;24.30;99.90;;;;;;5017075;28;20204;-68
2022/07/22 11:33:45;;;;;;;3.10;2.90;;;24.40;99.90;;;;;;5026694;28;20345;-67
2022/07/22 11:36:12;;;;;;;2.90;2.70;;;24.50;99.90;;;;;;5026694;28;20205;-67
2022/07/22 11:38:49;;;;;;;3.13;2.95;;;24.40;99.90;;;;;;5027015;28;20572;-67
2022/07/22 11:41:17;;;;;;;3.28;3.17;;;24.30;99.90;;;;;;5016379;28;20218;-67
2022/07/22 11:43:46;;;;;;;3.47;3.28;;;24.10;99.90;;;;;;5007034;28;20241;-68
2022/07/22 11:46:13;;;;;;;3.70;3.50;;;24.20;99.90;;;;;;5008138;28;20213;-67
2022/07/22 11:48:41;;;;;;;2.95;2.75;;;24.10;99.90;;;;;;5016121;28;20746;-67
2022/07/22 11:51:11;;;;;;;3.53;3.33;;;24.10;99.90;;;;;;5018488;28;20572;-67
2022/07/22 11:53:38;;;;;;;3.72;3.50;;;24.20;99.90;;;;;;5006620;28;20278;-68
2022/07/22 11:56:12;;;;;;;3.50;3.30;;;24.30;99.90;;;;;;5006550;28;20627;-67
2022/07/22 11:58:42;;;;;;;3.53;3.33;;;24.10;99.90;;;;;;5006625;28;20202;-67
2022/07/22 12:01:10;;;;;;;2.92;2.80;;;23.80;99.90;;;;;;5007352;28;20225;-67
2022/07/22 12:03:39;;;;;;;2.90;2.70;;;24.00;99.90;;;;;;5006668;28;20220;-67
2022/07/22 12:06:11;;;;;;;2.63;2.53;;;24.10;99.90;;;;;;5006746;28;20241;-67
2022/07/22 12:08:42;;;;;;;2.80;2.60;;;24.30;99.90;;;;;;5007570;28;20201;-67
2022/07/22 12:11:11;;;;;;;2.90;2.80;;;24.40;99.90;;;;;;5017676;28;20198;-67
2022/07/22 12:13:43;;;;;;;2.47;2.38;;;24.30;99.90;;;;;;5025807;28;20229;-67
2022/07/22 12:16:22;;;;;;;2.90;2.38;;;24.20;99.90;;;;;;5026334;28;20215;-68
2022/07/22 12:18:56;;;;;;;2.47;2.33;;;24.20;99.90;;;;;;5027657;27;20244;-68
2022/07/22 12:21:27;;;;;;;3.05;2.50;;;24.10;99.90;;;;;;5025946;28;20189;-67
2022/07/22 12:23:56;;;;;;;2.90;2.25;;;24.10;99.90;;;;;;5025916;28;20549;-67
2022/07/22 12:26:44;;;;;;;2.08;1.98;;;24.30;99.90;;;;;;5025913;28;20217;-67
2022/07/22 12:29:19;;;;;;;2.70;2.40;;;24.30;99.90;;;;;;5026176;28;20236;-67
2022/07/22 12:31:47;;;;;;;2.25;2.05;;;24.20;99.90;;;;;;5011134;28;20206;-67
2022/07/22 12:34:14;;;;;;;2.40;2.20;;;24.40;99.90;;;;;;5006451;28;20233;-67
2022/07/22 12:36:46;;;;;;;2.10;2.00;;;24.60;99.90;;;;;;5006078;28;20212;-68
2022/07/22 12:39:16;;;;;;;2.55;2.03;;;25.00;99.90;;;;;;5005986;28;20648;-67
2022/07/22 12:41:47;;;;;;;2.38;2.17;;;25.40;99.90;;;;;;5006238;28;20305;-68
2022/07/22 12:44:22;;;;;;;1.70;1.70;;;25.40;99.90;;;;;;5006295;28;20209;-68
2022/07/22 12:46:50;;;;;;;2.38;2.15;;;25.50;99.90;;;;;;5006244;28;20200;-68
2022/07/22 12:49:20;;;;;;;2.13;1.90;;;25.90;99.90;;;;;;5017928;28;20248;-68